createdAt,value
2018-09-17T00:00:23.115Z,11.90
2018-09-17T00:02:52.378Z,11.90
2018-09-17T00:05:21.726Z,11.90
2018-09-17T00:07:51.021Z,11.80
2018-09-17T00:10:20.342Z,11.80
2018-09-17T00:12:49.666Z,11.90
2018-09-17T00:15:19.052Z,11.90
2018-09-17T00:17:48.326Z,11.90
2018-09-17T00:20:17.618Z,12.00
2018-09-17T00:22:46.956Z,12.00
2018-09-17T00:25:16.243Z,11.90
2018-09-17T00:27:45.686Z,11.90
2018-09-17T00:30:14.989Z,11.80
2018-09-17T00:32:44.356Z,11.70
2018-09-17T00:35:13.668Z,11.50
2018-09-17T00:37:43.055Z,11.50
2018-09-17T00:40:12.358Z,11.50
2018-09-17T00:42:41.657Z,11.50
2018-09-17T00:45:10.939Z,11.40
2018-09-17T00:47:40.366Z,11.40
2018-09-17T00:50:09.726Z,11.30
2018-09-17T00:52:39.035Z,11.30
2018-09-17T00:55:08.350Z,11.40
2018-09-17T00:57:37.588Z,11.40
2018-09-17T01:00:06.903Z,11.40
2018-09-17T01:02:36.199Z,11.40
2018-09-17T01:05:05.834Z,11.30
2018-09-17T01:07:35.267Z,11.30
2018-09-17T01:10:04.747Z,11.20
2018-09-17T01:12:34.086Z,11.20
2018-09-17T01:15:03.386Z,11.20
2018-09-17T01:17:32.638Z,11.10
2018-09-17T01:20:01.854Z,11.10
2018-09-17T01:22:31.183Z,11.00
2018-09-17T01:25:00.453Z,11.00
2018-09-17T01:27:29.746Z,11.00
2018-09-17T01:29:58.988Z,11.00
2018-09-17T01:32:28.373Z,11.00
2018-09-17T01:34:57.733Z,10.80
2018-09-17T01:37:27.126Z,10.80
2018-09-17T01:39:56.470Z,10.80
2018-09-17T01:42:25.829Z,10.80
2018-09-17T01:44:55.074Z,10.80
2018-09-17T01:47:24.410Z,10.70
2018-09-17T01:49:53.726Z,10.70
2018-09-17T01:52:23.059Z,10.70
2018-09-17T01:54:52.334Z,10.60
2018-09-17T01:57:21.629Z,10.50
2018-09-17T01:59:50.889Z,10.50
2018-09-17T02:02:20.168Z,10.40
2018-09-17T02:04:49.555Z,10.50
2018-09-17T02:07:18.815Z,10.50
2018-09-17T02:09:48.301Z,10.50
2018-09-17T02:12:17.620Z,10.50
2018-09-17T02:14:46.806Z,10.50
2018-09-17T02:17:16.072Z,10.40
2018-09-17T02:19:45.355Z,10.30
2018-09-17T02:22:14.618Z,10.20
2018-09-17T02:24:44.086Z,10.20
2018-09-17T02:27:13.387Z,10.00
2018-09-17T02:29:42.618Z,9.90
2018-09-17T02:32:12.194Z,9.80
2018-09-17T02:34:41.520Z,9.80
2018-09-17T02:37:10.894Z,9.80
2018-09-17T02:39:40.191Z,9.70
2018-09-17T02:42:09.731Z,9.80
2018-09-17T02:44:39.067Z,9.70
2018-09-17T02:47:08.347Z,9.80
2018-09-17T02:49:37.695Z,9.80
2018-09-17T02:52:07.142Z,9.60
2018-09-17T02:54:36.478Z,9.70
2018-09-17T02:57:05.791Z,9.80
2018-09-17T02:59:35.111Z,9.80
2018-09-17T03:02:04.384Z,9.90
2018-09-17T03:04:33.789Z,9.90
2018-09-17T03:07:03.046Z,9.80
2018-09-17T03:09:32.374Z,9.80
2018-09-17T03:12:01.627Z,9.70
2018-09-17T03:14:31.271Z,9.60
2018-09-17T03:17:09.337Z,9.50
2018-09-17T03:19:38.879Z,9.40
2018-09-17T03:22:08.253Z,9.40
2018-09-17T03:24:37.883Z,9.40
2018-09-17T03:27:07.644Z,9.50
2018-09-17T03:29:37.104Z,9.50
2018-09-17T03:32:06.510Z,9.60
2018-09-17T03:34:35.830Z,9.50
2018-09-17T03:37:05.388Z,9.40
2018-09-17T03:39:34.666Z,9.40
2018-09-17T03:42:04.036Z,9.30
2018-09-17T03:44:33.343Z,9.30
2018-09-17T03:47:02.642Z,9.30
2018-09-17T03:49:32.073Z,9.20
2018-09-17T03:52:01.487Z,9.10
2018-09-17T03:54:30.792Z,9.10
2018-09-17T03:57:00.114Z,9.00
2018-09-17T03:59:29.554Z,8.90
2018-09-17T04:01:58.779Z,8.90
2018-09-17T04:04:28.047Z,8.90
2018-09-17T04:06:57.349Z,8.90
2018-09-17T04:09:26.629Z,9.00
2018-09-17T04:11:55.963Z,8.90
2018-09-17T04:14:25.257Z,8.90
2018-09-17T04:16:55.704Z,8.90
2018-09-17T04:19:24.963Z,8.90
2018-09-17T04:21:54.258Z,8.90
2018-09-17T04:24:23.531Z,9.00
2018-09-17T04:26:52.869Z,9.00
2018-09-17T04:29:22.094Z,9.00
2018-09-17T04:31:51.398Z,8.90
2018-09-17T04:34:20.830Z,8.80
2018-09-17T04:36:50.125Z,8.80
2018-09-17T04:39:21.499Z,8.80
2018-09-17T04:41:50.822Z,8.80
2018-09-17T04:44:20.481Z,8.90
2018-09-17T04:46:49.826Z,8.90
2018-09-17T04:49:19.199Z,8.90
2018-09-17T04:51:48.536Z,9.00
2018-09-17T04:54:17.911Z,8.90
2018-09-17T04:56:47.263Z,8.80
2018-09-17T04:59:16.554Z,8.70
2018-09-17T05:01:45.796Z,8.70
2018-09-17T05:04:15.112Z,8.70
2018-09-17T05:06:44.870Z,8.60
2018-09-17T05:09:14.205Z,8.70
2018-09-17T05:11:43.502Z,8.70
2018-09-17T05:14:12.766Z,8.70
2018-09-17T05:16:42.058Z,8.70
2018-09-17T05:19:11.315Z,8.70
2018-09-17T05:21:40.585Z,8.60
2018-09-17T05:24:09.848Z,8.60
2018-09-17T05:26:39.165Z,8.60
2018-09-17T05:29:08.502Z,8.50
2018-09-17T05:31:37.886Z,8.50
2018-09-17T05:34:07.263Z,8.50
2018-09-17T05:36:36.668Z,8.60
2018-09-17T05:39:08.764Z,8.60
2018-09-17T05:41:38.046Z,8.60
2018-09-17T05:44:07.320Z,8.70
2018-09-17T05:46:36.645Z,8.80
2018-09-17T05:49:05.958Z,8.80
2018-09-17T05:51:35.402Z,8.80
2018-09-17T05:54:04.758Z,8.80
2018-09-17T05:56:34.152Z,8.80
2018-09-17T05:59:03.544Z,8.90
2018-09-17T06:01:32.846Z,8.90
2018-09-17T06:04:02.220Z,8.90
2018-09-17T06:06:31.496Z,8.80
2018-09-17T06:09:00.827Z,8.90
2018-09-17T06:11:30.055Z,9.00
2018-09-17T06:13:59.294Z,9.10
2018-09-17T06:16:28.616Z,9.10
2018-09-17T06:18:57.899Z,9.20
2018-09-17T06:21:27.388Z,9.20
2018-09-17T06:23:56.709Z,9.30
2018-09-17T06:26:25.969Z,9.40
2018-09-17T06:28:55.472Z,9.50
2018-09-17T06:31:24.680Z,9.60
2018-09-17T06:33:53.994Z,9.70
2018-09-17T06:36:23.465Z,9.80
2018-09-17T06:38:52.729Z,10.00
2018-09-17T06:41:22.024Z,10.00
2018-09-17T06:43:51.554Z,10.10
2018-09-17T06:46:20.973Z,10.30
2018-09-17T06:48:50.319Z,10.40
2018-09-17T06:51:19.658Z,10.60
2018-09-17T06:53:48.997Z,10.80
2018-09-17T06:56:18.299Z,10.90
2018-09-17T06:58:47.740Z,11.10
2018-09-17T07:01:17.171Z,11.30
2018-09-17T07:03:46.542Z,11.50
2018-09-17T07:06:15.867Z,11.70
2018-09-17T07:08:45.163Z,11.90
2018-09-17T07:11:14.498Z,12.10
2018-09-17T07:13:43.758Z,12.30
2018-09-17T07:16:13.057Z,12.50
2018-09-17T07:18:42.418Z,12.80
2018-09-17T07:21:11.733Z,13.00
2018-09-17T07:23:41.138Z,13.20
2018-09-17T07:26:10.502Z,13.40
2018-09-17T07:28:39.843Z,13.50
2018-09-17T07:31:09.255Z,13.70
2018-09-17T07:33:38.637Z,14.00
2018-09-17T07:39:01.642Z,14.50
2018-09-17T07:41:30.889Z,14.70
2018-09-17T07:44:00.198Z,14.90
2018-09-17T07:46:29.500Z,15.10
2018-09-17T07:48:58.810Z,15.40
2018-09-17T07:51:28.127Z,15.70
2018-09-17T07:53:57.466Z,15.90
2018-09-17T07:56:26.782Z,16.10
2018-09-17T07:58:56.261Z,16.50
2018-09-17T08:01:25.597Z,16.60
2018-09-17T08:03:54.895Z,16.90
2018-09-17T08:06:24.213Z,17.20
2018-09-17T08:08:53.481Z,17.50
2018-09-17T08:11:22.770Z,17.70
2018-09-17T08:13:52.067Z,17.90
2018-09-17T08:16:21.719Z,18.30
2018-09-17T08:18:50.975Z,18.60
2018-09-17T08:21:20.390Z,18.60
2018-09-17T08:23:49.714Z,18.90
2018-09-17T08:26:19.281Z,19.00
2018-09-17T08:28:48.577Z,19.10
2018-09-17T08:31:17.971Z,19.20
2018-09-17T08:33:47.221Z,19.30
2018-09-17T08:36:16.950Z,19.60
2018-09-17T08:38:46.286Z,19.70
2018-09-17T08:41:15.714Z,19.80
2018-09-17T08:43:44.998Z,20.10
2018-09-17T08:46:14.427Z,20.40
2018-09-17T08:48:43.814Z,20.50
2018-09-17T08:51:13.114Z,20.50
2018-09-17T08:53:42.415Z,20.60
2018-09-17T08:56:16.857Z,20.90
2018-09-17T08:58:51.185Z,21.10
2018-09-17T09:01:25.666Z,21.40
2018-09-17T09:04:00.429Z,21.70
2018-09-17T09:06:29.826Z,21.90
2018-09-17T09:08:59.086Z,22.20
2018-09-17T09:11:33.263Z,22.30
2018-09-17T09:14:08.639Z,22.40
2018-09-17T09:16:37.957Z,22.80
2018-09-17T09:19:07.351Z,23.10
2018-09-17T09:21:36.670Z,23.10
2018-09-17T09:24:06.921Z,23.50
2018-09-17T09:26:36.206Z,23.70
2018-09-17T09:29:05.530Z,23.60
2018-09-17T09:31:34.894Z,23.70
2018-09-17T09:34:04.344Z,23.90
2018-09-17T09:36:33.523Z,24.20
2018-09-17T09:39:02.911Z,24.40
2018-09-17T09:41:32.195Z,24.60
2018-09-17T09:44:01.515Z,24.90
2018-09-17T09:46:30.823Z,24.90
2018-09-17T09:49:00.137Z,25.20
2018-09-17T09:51:29.440Z,25.30
2018-09-17T09:53:58.830Z,25.40
2018-09-17T09:56:28.198Z,25.50
2018-09-17T09:58:57.568Z,25.60
2018-09-17T10:01:27.838Z,25.70
2018-09-17T10:04:02.569Z,25.90
2018-09-17T10:06:31.895Z,25.90
2018-09-17T10:09:06.427Z,26.00
2018-09-17T10:11:40.782Z,26.00
2018-09-17T10:14:15.242Z,26.20
2018-09-17T10:16:49.634Z,26.50
2018-09-17T10:19:19.921Z,26.70
2018-09-17T10:21:49.211Z,26.70
2018-09-17T10:24:18.597Z,26.80
2018-09-17T10:26:47.870Z,27.00
2018-09-17T10:29:21.016Z,27.40
2018-09-17T10:32:00.772Z,27.40
2018-09-17T10:34:30.170Z,27.60
2018-09-17T10:36:59.461Z,27.80
2018-09-17T10:39:28.817Z,28.30
2018-09-17T10:41:58.225Z,28.50
2018-09-17T10:44:27.500Z,28.70
2018-09-17T10:46:56.988Z,28.80
2018-09-17T10:49:26.230Z,28.90
2018-09-17T10:51:55.511Z,28.90
2018-09-17T10:54:24.824Z,29.10
2018-09-17T10:56:54.085Z,29.30
2018-09-17T10:59:23.426Z,29.40
2018-09-17T11:01:52.746Z,29.60
2018-09-17T11:04:23.035Z,29.30
2018-09-17T11:06:52.395Z,29.60
2018-09-17T11:09:21.753Z,29.80
2018-09-17T11:11:51.160Z,29.70
2018-09-17T11:14:20.643Z,29.90
2018-09-17T11:16:49.908Z,30.30
2018-09-17T11:19:19.333Z,30.60
2018-09-17T11:21:48.675Z,30.80
2018-09-17T11:24:18.023Z,30.80
2018-09-17T11:26:47.344Z,30.80
2018-09-17T11:29:16.622Z,31.20
2018-09-17T11:31:46.065Z,30.90
2018-09-17T11:34:15.339Z,31.10
2018-09-17T11:36:44.739Z,31.10
2018-09-17T11:39:14.067Z,31.20
2018-09-17T11:41:43.463Z,31.70
2018-09-17T11:44:12.738Z,31.70
2018-09-17T11:46:41.978Z,31.40
2018-09-17T11:49:11.304Z,31.50
2018-09-17T11:51:40.617Z,32.30
2018-09-17T11:54:09.903Z,32.10
2018-09-17T11:56:39.175Z,32.30
2018-09-17T11:59:08.461Z,32.20
2018-09-17T12:01:42.817Z,32.30
2018-09-17T12:04:14.534Z,32.10
2018-09-17T12:06:49.049Z,32.10
2018-09-17T12:09:18.484Z,32.00
2018-09-17T12:11:48.687Z,31.80
2018-09-17T12:14:17.973Z,32.00
2018-09-17T12:16:47.350Z,32.20
2018-09-17T12:19:16.666Z,32.10
2018-09-17T12:21:45.937Z,31.70
2018-09-17T12:24:15.165Z,32.00
2018-09-17T12:26:44.617Z,32.20
2018-09-17T12:29:13.871Z,32.20
2018-09-17T12:31:43.222Z,32.10
2018-09-17T12:34:12.533Z,31.70
2018-09-17T12:36:41.934Z,31.70
2018-09-17T12:39:12.198Z,31.90
2018-09-17T12:41:41.555Z,32.10
2018-09-17T12:44:10.879Z,32.20
2018-09-17T12:46:40.228Z,32.10
2018-09-17T12:49:16.058Z,32.40
2018-09-17T12:51:45.424Z,32.90
2018-09-17T12:54:14.774Z,32.90
2018-09-17T12:56:44.341Z,32.60
2018-09-17T12:59:13.600Z,32.70
2018-09-17T13:01:42.895Z,33.20
2018-09-17T13:04:12.193Z,32.90
2018-09-17T13:06:45.547Z,32.60
2018-09-17T13:09:14.901Z,32.60
2018-09-17T13:11:44.247Z,32.30
2018-09-17T13:14:13.558Z,32.20
2018-09-17T13:16:42.957Z,32.60
2018-09-17T13:19:13.224Z,32.90
2018-09-17T13:21:42.634Z,33.10
2018-09-17T13:24:11.906Z,32.80
2018-09-17T13:26:41.212Z,32.90
2018-09-17T13:29:10.486Z,33.10
2018-09-17T13:31:43.288Z,33.20
2018-09-17T13:34:12.569Z,33.20
2018-09-17T13:36:42.851Z,33.10
2018-09-17T13:39:12.160Z,33.20
2018-09-17T13:41:41.478Z,32.90
2018-09-17T13:44:10.801Z,32.80
2018-09-17T13:46:40.132Z,32.40
2018-09-17T13:49:09.468Z,32.30
2018-09-17T13:51:38.755Z,32.30
2018-09-17T13:54:08.142Z,32.50
2018-09-17T13:56:37.513Z,32.50
2018-09-17T13:59:06.920Z,32.60
2018-09-17T14:01:36.287Z,32.70
2018-09-17T14:04:05.615Z,33.00
2018-09-17T14:06:34.879Z,33.30
2018-09-17T14:09:04.363Z,33.30
2018-09-17T14:11:33.592Z,32.80
2018-09-17T14:14:02.943Z,32.50
2018-09-17T14:16:34.529Z,32.80
2018-09-17T14:19:03.854Z,32.60
2018-09-17T14:21:34.895Z,32.50
2018-09-17T14:24:04.329Z,32.30
2018-09-17T14:26:33.615Z,32.10
2018-09-17T14:29:02.913Z,32.20
2018-09-17T14:31:37.287Z,32.10
2018-09-17T14:34:06.662Z,32.20
2018-09-17T14:36:35.998Z,32.10
2018-09-17T14:39:07.040Z,32.10
2018-09-17T14:41:36.307Z,32.20
2018-09-17T14:44:05.707Z,32.00
2018-09-17T14:46:34.993Z,32.10
2018-09-17T14:49:04.298Z,32.00
2018-09-17T14:51:33.583Z,32.00
2018-09-17T14:54:02.940Z,32.20
2018-09-17T14:56:32.245Z,32.10
2018-09-17T14:59:01.670Z,31.90
2018-09-17T15:01:30.951Z,31.80
2018-09-17T15:04:00.186Z,31.40
2018-09-17T15:06:29.494Z,31.00
2018-09-17T15:08:58.789Z,31.10
2018-09-17T15:11:28.045Z,31.00
2018-09-17T15:13:57.756Z,31.10
2018-09-17T15:16:27.228Z,31.20
2018-09-17T15:18:56.484Z,31.30
2018-09-17T15:21:25.794Z,31.40
2018-09-17T15:23:55.104Z,31.40
2018-09-17T15:26:24.459Z,31.10
2018-09-17T15:28:53.787Z,31.20
2018-09-17T15:31:23.239Z,31.10
2018-09-17T15:33:52.411Z,31.10
2018-09-17T15:36:21.749Z,31.00
2018-09-17T15:38:51.172Z,31.10
2018-09-17T15:41:22.078Z,31.20
2018-09-17T15:43:51.266Z,31.10
2018-09-17T15:46:20.599Z,31.00
2018-09-17T15:48:49.920Z,31.00
2018-09-17T15:51:19.282Z,30.90
2018-09-17T15:53:48.594Z,30.80
2018-09-17T15:56:17.992Z,30.70
2018-09-17T15:58:47.451Z,30.50
2018-09-17T16:01:16.841Z,30.50
2018-09-17T16:03:46.108Z,30.30
2018-09-17T16:06:15.450Z,30.20
2018-09-17T16:08:44.789Z,30.00
2018-09-17T16:11:14.263Z,29.70
2018-09-17T16:13:43.586Z,29.50
2018-09-17T16:16:12.850Z,29.20
2018-09-17T16:18:42.134Z,29.10
2018-09-17T16:21:11.482Z,28.90
2018-09-17T16:23:40.764Z,28.80
2018-09-17T16:26:10.075Z,28.40
2018-09-17T16:28:39.434Z,28.30
2018-09-17T16:31:08.754Z,28.20
2018-09-17T16:33:38.490Z,28.10
2018-09-17T16:36:07.803Z,28.10
2018-09-17T16:38:37.067Z,28.00
2018-09-17T16:41:06.774Z,27.90
2018-09-17T16:43:36.114Z,27.40
2018-09-17T16:46:05.390Z,27.20
2018-09-17T16:48:34.624Z,27.00
2018-09-17T16:51:03.918Z,26.80
2018-09-17T16:53:33.333Z,26.40
2018-09-17T16:56:02.527Z,26.20
2018-09-17T16:58:31.867Z,26.20
2018-09-17T17:01:01.208Z,26.10
2018-09-17T17:03:30.393Z,25.90
2018-09-17T17:05:59.779Z,25.80
2018-09-17T17:08:29.227Z,25.70
2018-09-17T17:10:58.635Z,25.50
2018-09-17T17:16:00.604Z,25.40
2018-09-17T17:18:29.915Z,25.10
2018-09-17T17:20:59.402Z,24.90
2018-09-17T17:23:28.738Z,24.70
2018-09-17T17:25:57.978Z,24.60
2018-09-17T17:28:27.337Z,24.40
2018-09-17T17:30:56.586Z,24.20
2018-09-17T17:33:25.968Z,24.10
2018-09-17T17:35:55.338Z,24.00
2018-09-17T17:38:24.668Z,23.90
2018-09-17T17:40:54.068Z,23.80
2018-09-17T17:43:23.364Z,23.60
2018-09-17T17:45:52.651Z,23.40
2018-09-17T17:48:21.999Z,23.20
2018-09-17T17:50:51.302Z,23.10
2018-09-17T17:53:20.606Z,23.00
2018-09-17T17:55:49.878Z,22.90
2018-09-17T17:58:19.229Z,22.80
2018-09-17T18:00:48.682Z,22.60
2018-09-17T18:03:18.025Z,22.50
2018-09-17T18:05:47.294Z,22.40
2018-09-17T18:08:16.605Z,22.40
2018-09-17T18:10:45.903Z,22.30
2018-09-17T18:13:15.493Z,22.10
2018-09-17T18:15:44.779Z,21.80
2018-09-17T18:18:14.139Z,21.60
2018-09-17T18:20:43.606Z,21.30
2018-09-17T18:23:19.417Z,21.20
2018-09-17T18:25:48.718Z,21.20
2018-09-17T18:28:18.088Z,21.20
2018-09-17T18:30:47.418Z,21.00
2018-09-17T18:33:16.815Z,21.00
2018-09-17T18:35:46.042Z,20.90
2018-09-17T18:38:15.329Z,20.80
2018-09-17T18:40:49.344Z,20.80
2018-09-17T18:43:26.318Z,20.70
2018-09-17T18:45:55.610Z,20.60
2018-09-17T18:48:25.039Z,20.50
2018-09-17T18:50:54.372Z,20.40
2018-09-17T18:53:23.642Z,20.30
2018-09-17T18:55:52.938Z,20.20
2018-09-17T18:58:22.227Z,20.10
2018-09-17T19:00:51.563Z,19.90
2018-09-17T19:03:21.000Z,19.80
2018-09-17T19:05:50.752Z,19.70
2018-09-17T19:08:20.107Z,19.60
2018-09-17T19:10:49.472Z,19.50
2018-09-17T19:13:18.818Z,19.50
2018-09-17T19:15:53.200Z,19.50
2018-09-17T19:18:29.130Z,19.40
2018-09-17T19:20:58.801Z,19.30
2018-09-17T19:23:33.079Z,19.20
2018-09-17T19:26:05.528Z,19.00
2018-09-17T19:28:39.999Z,19.00
2018-09-17T19:31:09.355Z,18.90
2018-09-17T19:33:39.132Z,18.90
2018-09-17T19:36:09.862Z,18.90
2018-09-17T19:38:44.329Z,18.90
2018-09-17T19:41:13.648Z,18.80
2018-09-17T19:43:43.003Z,18.70
2018-09-17T19:46:17.986Z,18.60
2018-09-17T19:48:47.857Z,18.50
2018-09-17T19:51:22.427Z,18.40
2018-09-17T19:53:51.703Z,18.30
2018-09-17T19:56:21.116Z,18.20
2018-09-17T19:58:55.467Z,18.00
2018-09-17T20:01:24.791Z,17.90
2018-09-17T20:03:54.152Z,17.90
2018-09-17T20:06:27.907Z,17.80
2018-09-17T20:08:57.188Z,17.80
2018-09-17T20:11:29.823Z,17.80
2018-09-17T20:13:59.143Z,17.70
2018-09-17T20:16:29.297Z,17.60
2018-09-17T20:18:58.656Z,17.60
2018-09-17T20:21:27.969Z,17.50
2018-09-17T20:23:57.295Z,17.40
2018-09-17T20:26:26.693Z,17.30
2018-09-17T20:28:56.051Z,17.20
2018-09-17T20:31:25.364Z,17.20
2018-09-17T20:33:54.631Z,17.20
2018-09-17T20:36:23.942Z,17.10
2018-09-17T20:38:53.343Z,17.10
2018-09-17T20:41:22.640Z,17.00
2018-09-17T20:43:52.091Z,16.90
2018-09-17T20:46:21.472Z,16.80
2018-09-17T20:48:50.848Z,16.70
2018-09-17T20:51:20.159Z,16.70
2018-09-17T20:53:49.411Z,16.70
2018-09-17T20:56:18.744Z,16.60
2018-09-17T20:58:48.133Z,16.60
2018-09-17T21:01:17.508Z,16.60
2018-09-17T21:03:46.839Z,16.60
2018-09-17T21:06:16.258Z,16.60
2018-09-17T21:08:45.595Z,16.50
2018-09-17T21:11:14.898Z,16.40
2018-09-17T21:13:44.279Z,16.40
2018-09-17T21:16:13.549Z,16.20
2018-09-17T21:18:42.963Z,16.30
2018-09-17T21:21:12.823Z,16.10
2018-09-17T21:23:42.428Z,16.10
2018-09-17T21:26:11.867Z,15.90
2018-09-17T21:28:41.796Z,15.80
2018-09-17T21:31:11.215Z,15.70
2018-09-17T21:33:40.655Z,15.70
2018-09-17T21:36:09.999Z,15.70
2018-09-17T21:38:39.320Z,15.60
2018-09-17T21:41:08.660Z,15.50
2018-09-17T21:43:37.967Z,15.50
2018-09-17T21:46:07.618Z,15.50
2018-09-17T21:48:36.935Z,15.40
2018-09-17T21:51:06.278Z,15.40
2018-09-17T21:53:35.586Z,15.30
2018-09-17T21:56:04.919Z,15.30
2018-09-17T21:58:34.228Z,15.20
2018-09-17T22:01:04.453Z,15.10
2018-09-17T22:03:34.750Z,15.10
2018-09-17T22:06:04.152Z,15.10
2018-09-17T22:08:33.475Z,15.00
2018-09-17T22:11:02.822Z,14.90
2018-09-17T22:13:32.141Z,14.90
2018-09-17T22:16:01.457Z,14.90
2018-09-17T22:18:30.803Z,14.90
2018-09-17T22:21:00.151Z,14.80
2018-09-17T22:23:29.479Z,14.70
2018-09-17T22:25:58.802Z,14.70
2018-09-17T22:28:29.227Z,14.60
2018-09-17T22:30:58.641Z,14.60
2018-09-17T22:33:28.029Z,14.60
2018-09-17T22:35:57.491Z,14.50
2018-09-17T22:38:26.821Z,14.50
2018-09-17T22:40:56.150Z,14.50
2018-09-17T22:43:25.487Z,14.40
2018-09-17T22:45:54.807Z,14.40
2018-09-17T22:48:24.141Z,14.40
2018-09-17T22:50:53.463Z,14.30
2018-09-17T22:53:22.788Z,14.30
2018-09-17T22:55:52.115Z,14.30
2018-09-17T22:58:21.410Z,14.20
2018-09-17T23:00:50.793Z,14.20
2018-09-17T23:03:20.136Z,14.10
2018-09-17T23:05:49.411Z,14.10
2018-09-17T23:08:18.596Z,14.10
2018-09-17T23:10:47.902Z,14.10
2018-09-17T23:13:17.266Z,14.00
2018-09-17T23:15:46.634Z,14.00
2018-09-17T23:18:15.933Z,14.10
2018-09-17T23:20:45.206Z,14.10
2018-09-17T23:23:14.527Z,14.00
2018-09-17T23:25:43.880Z,14.00
2018-09-17T23:28:13.191Z,14.00
2018-09-17T23:30:42.506Z,14.00
2018-09-17T23:33:11.838Z,13.90
2018-09-17T23:35:41.065Z,13.90
2018-09-17T23:38:10.343Z,13.80
2018-09-17T23:40:39.680Z,13.80
2018-09-17T23:43:08.965Z,13.70
2018-09-17T23:45:38.324Z,13.80
2018-09-17T23:48:07.715Z,13.80
2018-09-17T23:50:37.098Z,13.70
2018-09-17T23:53:06.352Z,13.70
2018-09-17T23:55:35.663Z,13.70
2018-09-17T23:58:04.979Z,13.70
